Gabes, Gabes Matmata International Airport (DTTG)

NameGabes Matmata International Airport
CityGabes
CountryTunisia
ICAODTTG
IATAGAE
Altitude8 m
CoordinatesGoogle Map
Live Air TrafficLiveATC.net
METARDTTG 172000Z 23009KT 8000 FEW020 SCT030 24/13 Q1005 NOSIG
2018-10-17 20:00:00 Wind: Southwest (230°) 4.63 m/s - Visibility: 8000 m - Temperature: 24 °C - Dew point: 13 °C - Humidity: 50.3% - Pressure: 1005 hPa

Sorry, no flights used the airport in this database.